Decoded Metar for KZPH ( in ) (IATA:) | Meteo·Mobile Aviation Weather
aviador You're here:

KZPH Decoded Metar

in
Report Time2019-01-18 11:35:00
UTC Time2019-01-18 11:20:24
Flight Rules vfr VFR
WindCalm
Visibility9999 m
Phenomena:N/A
Clouds:Scattered 075 Hf
CeilingNone
Temp06°C
Dew Point06°C (100% RH)
AAT5.1°C
QNH1022 hPa
Raw Report
METAR KZPH 181135Z AUTO 00000KT 7SM SCT075 06/06 A3019 RMK AO2
T00590055=

Extra information for KZPH:More info

Social comments